Time;durP1;ratioP1;P1;durP2;ratioP2;P2;SDS_P1;SDS_P2;PMS_P1;PMS_P2;Temp;Humidity;BMP_temperature;BMP_pressure;BME280_temperature;BME280_humidity;BME280_pressure;Samples;Min_cycle;Max_cycle;Signal;HPM_P1;HPM_P2
2022/04/18 00:03:05;;;;;;;32.80;18.60;;;23.20;35.80;;;;;;220815;1267;22624;-64
2022/04/18 00:08:08;;;;;;;32.70;17.90;;;23.20;35.80;;;;;;220712;1266;25544;-68
2022/04/18 00:13:13;;;;;;;34.80;17.80;;;23.20;35.80;;;;;;220297;1267;22691;-65
2022/04/18 00:18:17;;;;;;;32.00;18.30;;;23.20;35.80;;;;;;220759;1267;24345;-64
2022/04/18 00:23:21;;;;;;;31.10;17.50;;;23.20;36.10;;;;;;220727;1267;25299;-62
2022/04/18 00:28:24;;;;;;;32.40;17.60;;;23.20;35.80;;;;;;220640;1267;22615;-65
2022/04/18 00:33:28;;;;;;;32.00;17.50;;;23.30;35.80;;;;;;220356;1267;24277;-64
2022/04/18 00:38:32;;;;;;;30.90;17.30;;;23.40;35.60;;;;;;220181;1268;22648;-65
2022/04/18 00:43:48;;;;;;;34.10;18.90;;;23.50;35.50;;;;;;220812;1267;22676;-64
2022/04/18 00:48:52;;;;;;;32.30;16.90;;;23.70;35.60;;;;;;220371;1267;22525;-64
2022/04/18 00:53:58;;;;;;;30.40;17.00;;;23.70;35.30;;;;;;221063;1268;24320;-65
2022/04/18 00:59:03;;;;;;;29.00;16.40;;;23.70;35.90;;;;;;221052;1267;23811;-64
2022/04/18 01:04:07;;;;;;;30.60;16.20;;;23.70;35.30;;;;;;220592;1268;22911;-65
2022/04/18 01:09:10;;;;;;;30.80;17.50;;;23.60;35.40;;;;;;220851;1267;22744;-63
2022/04/18 01:14:15;;;;;;;29.00;16.90;;;23.60;35.50;;;;;;220431;1267;22529;-69
2022/04/18 01:19:38;;;;;;;27.70;15.70;;;23.60;35.60;;;;;;220416;1267;22534;-64
2022/04/18 01:30:17;;;;;;;27.00;15.60;;;23.50;35.60;;;;;;220484;1267;22603;-65
2022/04/18 01:35:22;;;;;;;27.00;15.40;;;23.50;35.70;;;;;;220572;1267;22705;-63
2022/04/18 01:40:25;;;;;;;27.10;15.20;;;23.40;36.00;;;;;;220873;1267;25284;-66
2022/04/18 01:45:29;;;;;;;28.80;16.10;;;23.40;35.90;;;;;;220261;1268;22534;-64
2022/04/18 01:50:46;;;;;;;24.80;15.40;;;23.30;35.80;;;;;;220860;1268;25289;-65
2022/04/18 01:55:50;;;;;;;26.30;14.70;;;23.30;36.00;;;;;;220924;1266;22615;-66
2022/04/18 02:00:57;;;;;;;26.00;14.30;;;23.20;35.90;;;;;;220454;1267;23096;-64
2022/04/18 02:06:01;;;;;;;23.20;13.50;;;23.30;36.20;;;;;;220373;1267;22561;-66
2022/04/18 02:11:06;;;;;;;24.50;14.20;;;23.20;36.00;;;;;;220763;1267;25461;-63
2022/04/18 02:16:12;;;;;;;23.60;13.70;;;23.20;36.30;;;;;;220320;1267;24321;-65
2022/04/18 02:21:19;;;;;;;24.60;13.30;;;23.20;35.90;;;;;;220565;1267;24067;-66
2022/04/18 02:26:23;;;;;;;23.10;13.20;;;23.20;36.30;;;;;;220755;1268;24055;-60
2022/04/18 02:32:47;;;;;;;25.90;14.00;;;23.20;36.10;;;;;;220358;1267;24246;-65
2022/04/18 02:37:00;;;;;;;26.20;14.10;;;23.20;36.00;;;;;;220801;1268;25329;-64
2022/04/18 02:42:06;;;;;;;24.40;14.40;;;23.20;36.30;;;;;;220320;1267;22564;-64
2022/04/18 02:47:10;;;;;;;25.80;14.00;;;23.30;36.10;;;;;;220294;1270;24269;-67
2022/04/18 02:52:14;;;;;;;23.80;13.80;;;23.40;35.90;;;;;;220371;1267;24340;-65
2022/04/18 02:57:18;;;;;;;25.30;13.40;;;23.50;35.70;;;;;;220836;1267;25568;-64
2022/04/18 03:02:22;;;;;;;21.20;13.00;;;23.50;35.60;;;;;;220622;1268;22533;-65
2022/04/18 03:07:26;;;;;;;23.80;13.90;;;23.70;35.50;;;;;;220800;1267;22817;-64
2022/04/18 03:12:31;;;;;;;21.80;12.90;;;23.70;35.40;;;;;;220850;1267;24369;-63
2022/04/18 03:17:35;;;;;;;20.60;12.90;;;23.70;35.40;;;;;;220611;1267;22559;-66
2022/04/18 03:22:39;;;;;;;18.20;11.20;;;23.60;35.30;;;;;;220630;1267;22597;-65
2022/04/18 03:27:45;;;;;;;20.10;11.70;;;23.60;35.40;;;;;;220826;1267;24214;-68
2022/04/18 03:32:48;;;;;;;18.40;11.40;;;23.50;35.40;;;;;;220527;1267;24454;-65
2022/04/18 03:43:15;;;;;;;18.50;10.70;;;23.40;35.50;;;;;;220770;1268;22746;-69
2022/04/18 03:48:19;;;;;;;18.40;10.90;;;23.40;35.50;;;;;;220809;1267;22729;-67
2022/04/18 03:53:23;;;;;;;17.30;9.90;;;23.40;35.60;;;;;;220700;1267;22559;-66
2022/04/18 03:58:28;;;;;;;18.20;10.50;;;23.30;35.60;;;;;;220877;1267;24321;-65
2022/04/18 04:03:31;;;;;;;17.20;10.70;;;23.30;35.90;;;;;;220278;1267;22571;-64
2022/04/18 04:08:35;;;;;;;16.30;9.90;;;23.20;35.60;;;;;;220703;1267;22571;-64
2022/04/18 04:13:42;;;;;;;16.60;9.40;;;23.20;35.60;;;;;;220370;1268;24364;-64
2022/04/18 04:18:51;;;;;;;15.20;9.50;;;23.20;35.60;;;;;;220371;1267;25350;-66
2022/04/18 04:23:55;;;;;;;16.20;9.70;;;23.20;35.80;;;;;;220485;1268;275437;-66
2022/04/18 04:29:13;;;;;;;17.00;10.10;;;23.20;35.70;;;;;;220487;1268;22679;-64
2022/04/18 04:34:28;;;;;;;15.50;9.00;;;23.20;35.70;;;;;;220353;1270;22538;-65
2022/04/18 04:39:46;;;;;;;14.60;8.90;;;23.20;35.70;;;;;;220643;1268;22638;-66
2022/04/18 04:44:50;;;;;;;15.80;9.60;;;23.20;35.70;;;;;;220776;1268;24277;-65
2022/04/18 04:50:03;;;;;;;15.20;9.00;;;23.20;35.70;;;;;;220282;1268;24436;-65
2022/04/18 04:55:16;;;;;;;12.30;8.00;;;23.20;35.70;;;;;;220763;1267;23741;-63
2022/04/18 05:00:25;;;;;;;13.50;7.80;;;23.20;35.70;;;;;;220453;1267;22564;-66
2022/04/18 05:05:47;;;;;;;13.70;8.50;;;23.20;35.60;;;;;;220449;1268;22732;-62
2022/04/18 05:11:17;;;;;;;13.20;8.00;;;23.20;35.70;;;;;;220349;1267;24418;-65
2022/04/18 05:16:26;;;;;;;12.40;7.30;;;23.20;35.60;;;;;;220476;1267;22569;-65
2022/04/18 05:21:57;;;;;;;15.10;8.20;;;23.30;35.60;;;;;;220670;1268;22554;-64
2022/04/18 05:27:05;;;;;;;14.60;8.50;;;23.30;35.80;;;;;;220941;1267;24214;-65
2022/04/18 05:32:11;;;;;;;11.90;7.60;;;23.50;35.30;;;;;;220469;1267;24376;-63
2022/04/18 05:37:21;;;;;;;11.50;7.40;;;23.50;35.20;;;;;;220458;1267;25377;-65
2022/04/18 05:42:36;;;;;;;12.00;7.50;;;23.60;35.30;;;;;;220312;1267;22552;-65
2022/04/18 05:47:47;;;;;;;12.30;7.80;;;23.60;35.00;;;;;;220449;1268;22611;-68
2022/04/18 05:52:51;;;;;;;11.40;7.50;;;23.60;35.00;;;;;;220562;1268;22681;-64
2022/04/18 05:58:16;;;;;;;13.30;7.70;;;23.60;35.10;;;;;;220409;1268;23220;-64
2022/04/18 06:03:20;;;;;;;10.00;6.50;;;23.60;35.10;;;;;;220800;1267;22693;-64
2022/04/18 06:08:24;;;;;;;11.30;7.00;;;23.50;35.10;;;;;;220987;1267;24198;-68
2022/04/18 06:13:35;;;;;;;11.20;7.20;;;23.50;35.20;;;;;;220563;1268;24429;-66
2022/04/18 06:18:39;;;;;;;9.60;6.30;;;23.50;35.10;;;;;;220819;1267;25098;-64
2022/04/18 06:23:44;;;;;;;11.10;6.60;;;23.40;35.10;;;;;;220758;1267;25530;-66
2022/04/18 06:29:21;;;;;;;9.30;5.70;;;23.40;35.20;;;;;;220252;1270;22807;-65
2022/04/18 06:34:26;;;;;;;12.40;6.70;;;23.40;35.10;;;;;;220982;1267;25618;-65
2022/04/18 06:39:31;;;;;;;10.10;5.80;;;23.30;35.20;;;;;;220456;1267;25491;-64
2022/04/18 06:45:11;;;;;;;9.40;5.90;;;23.30;35.50;;;;;;220642;1268;22718;-65
2022/04/18 06:50:16;;;;;;;11.00;6.60;;;23.30;35.20;;;;;;220993;1268;26705;-66
2022/04/18 07:01:20;;;;;;;10.40;5.60;;;23.30;35.50;;;;;;220926;1270;24417;-67
2022/04/18 07:06:25;;;;;;;10.50;6.00;;;23.30;35.20;;;;;;220579;1269;24296;-64
2022/04/18 07:11:29;;;;;;;10.10;6.00;;;23.30;35.20;;;;;;220516;1268;22906;-65
2022/04/18 07:16:37;;;;;;;9.70;6.40;;;23.30;35.20;;;;;;220331;1270;22592;-64
2022/04/18 07:21:47;;;;;;;9.70;5.60;;;23.30;35.20;;;;;;220439;1268;22546;-68
2022/04/18 07:26:51;;;;;;;9.60;5.80;;;23.30;35.10;;;;;;220761;1268;22977;-65
2022/04/18 07:31:59;;;;;;;10.60;6.80;;;23.30;35.10;;;;;;221068;1267;22754;-67
2022/04/18 07:37:09;;;;;;;9.80;5.60;;;23.30;35.00;;;;;;220617;1269;22745;-63
2022/04/18 07:42:33;;;;;;;9.70;6.20;;;23.20;35.00;;;;;;220563;1268;22557;-63
2022/04/18 07:47:42;;;;;;;8.80;6.00;;;23.30;35.10;;;;;;220595;1270;24268;-65
2022/04/18 07:52:50;;;;;;;9.70;5.80;;;23.30;35.10;;;;;;220897;1270;22712;-65
2022/04/18 07:57:55;;;;;;;9.80;5.60;;;23.30;35.00;;;;;;220729;1270;22554;-65
2022/04/18 08:02:59;;;;;;;9.40;5.40;;;23.30;35.00;;;;;;220830;1268;25240;-66
2022/04/18 08:08:22;;;;;;;9.80;5.80;;;23.30;35.00;;;;;;220583;1268;23514;-64
2022/04/18 08:13:31;;;;;;;8.20;4.70;;;23.30;34.90;;;;;;221002;1268;22808;-64
2022/04/18 08:19:05;;;;;;;8.10;4.90;;;23.30;35.30;;;;;;220754;1267;24413;-62
2022/04/18 08:24:09;;;;;;;7.80;5.00;;;23.30;34.90;;;;;;220781;1268;22529;-65
2022/04/18 08:29:38;;;;;;;9.50;5.10;;;23.30;35.00;;;;;;220487;1269;22661;-66
2022/04/18 08:35:00;;;;;;;7.50;4.70;;;23.30;35.30;;;;;;220157;1268;22556;-63
2022/04/18 08:40:10;;;;;;;7.80;4.70;;;23.30;34.90;;;;;;220820;1270;24369;-66
2022/04/18 08:45:16;;;;;;;8.40;4.70;;;23.30;34.90;;;;;;220639;1269;22576;-65
2022/04/18 08:55:52;;;;;;;7.70;4.90;;;23.40;34.90;;;;;;220239;1268;22532;-63
2022/04/18 09:01:02;;;;;;;8.50;4.80;;;23.40;34.80;;;;;;220842;1268;22534;-65
2022/04/18 09:06:39;;;;;;;7.30;4.50;;;23.50;34.80;;;;;;220925;1268;24051;-67
2022/04/18 09:12:19;;;;;;;8.50;4.70;;;23.50;35.10;;;;;;220583;1268;22639;-65
2022/04/18 09:17:49;;;;;;;6.70;4.60;;;23.50;34.70;;;;;;220546;1268;25471;-63
2022/04/18 09:23:23;;;;;;;8.30;4.40;;;23.50;35.20;;;;;;220741;1268;22703;-64
2022/04/18 09:28:30;;;;;;;6.50;4.50;;;23.50;34.70;;;;;;220857;1268;22734;-67
2022/04/18 09:33:38;;;;;;;5.90;3.80;;;23.60;34.60;;;;;;220625;1268;22640;-63
2022/04/18 09:38:55;;;;;;;6.30;4.10;;;23.60;34.60;;;;;;220530;1268;22615;-65
2022/04/18 09:44:26;;;;;;;6.70;4.10;;;23.60;34.40;;;;;;220456;1268;24366;-68
2022/04/18 09:49:39;;;;;;;7.20;4.20;;;23.60;34.30;;;;;;220604;1268;23991;-63
2022/04/18 09:54:56;;;;;;;6.40;4.30;;;23.60;34.20;;;;;;220599;1268;22634;-63
2022/04/18 10:00:00;;;;;;;6.40;3.80;;;23.60;34.40;;;;;;220980;1268;22586;-65
2022/04/18 10:05:04;;;;;;;6.10;3.80;;;23.60;34.30;;;;;;220469;1268;22737;-65
2022/04/18 10:10:13;;;;;;;6.50;3.30;;;23.50;34.30;;;;;;220725;1268;25399;-63
2022/04/18 10:15:16;;;;;;;5.30;3.60;;;23.50;34.30;;;;;;220954;1267;22692;-63
2022/04/18 10:20:37;;;;;;;6.50;3.70;;;23.50;34.40;;;;;;220611;1268;25389;-64
2022/04/18 10:26:22;;;;;;;6.30;3.50;;;23.50;35.10;;;;;;220632;1268;26009;-65
2022/04/18 10:31:35;;;;;;;4.80;2.90;;;23.40;34.30;;;;;;220869;1269;22537;-65
2022/04/18 10:36:45;;;;;;;4.80;2.50;;;23.40;34.30;;;;;;221081;1269;24192;-65
2022/04/18 10:41:51;;;;;;;4.90;3.20;;;23.40;34.30;;;;;;220710;1268;24220;-68
2022/04/18 10:46:57;;;;;;;5.40;3.40;;;23.40;34.30;;;;;;220933;1268;25400;-61
2022/04/18 10:52:09;;;;;;;5.50;3.20;;;23.40;34.00;;;;;;220919;1268;25343;-65
2022/04/18 10:57:16;;;;;;;4.40;2.80;;;23.40;34.60;;;;;;220990;1268;25484;-62
2022/04/18 11:02:48;;;;;;;3.80;2.50;;;23.40;34.70;;;;;;220940;1267;24214;-65
2022/04/18 11:07:52;;;;;;;3.80;2.70;;;23.30;34.20;;;;;;220915;1268;24432;-65
2022/04/18 11:13:03;;;;;;;4.70;3.00;;;23.30;34.20;;;;;;220619;1268;25264;-64
2022/04/18 11:18:29;;;;;;;4.40;2.60;;;23.30;34.50;;;;;;221049;1268;26449;-65
2022/04/18 11:23:34;;;;;;;4.80;2.70;;;23.30;34.70;;;;;;220856;1268;22540;-65
2022/04/18 11:28:41;;;;;;;4.20;3.00;;;23.30;34.10;;;;;;220884;1268;24258;-64
2022/04/18 11:33:45;;;;;;;4.70;3.00;;;23.30;34.10;;;;;;220890;1268;24422;-68
2022/04/18 11:38:49;;;;;;;5.10;3.00;;;23.30;34.10;;;;;;220690;1268;24210;-66
2022/04/18 11:43:58;;;;;;;6.60;3.40;;;23.30;34.00;;;;;;220400;1268;23115;-66
2022/04/18 11:49:01;;;;;;;5.30;3.00;;;23.30;34.00;;;;;;220693;1268;22612;-64
2022/04/18 11:54:05;;;;;;;4.30;2.70;;;23.30;33.90;;;;;;220411;1267;23297;-57
2022/04/18 11:59:09;;;;;;;5.60;3.00;;;23.40;33.90;;;;;;221100;1266;25494;-64
2022/04/18 12:09:35;;;;;;;4.00;2.40;;;23.40;34.20;;;;;;220648;1267;22599;-63
2022/04/18 12:14:45;;;;;;;4.50;2.60;;;23.40;33.90;;;;;;220740;1268;24310;-61
2022/04/18 12:19:52;;;;;;;3.60;2.60;;;23.30;33.80;;;;;;220495;1268;25244;-65
2022/04/18 12:25:01;;;;;;;4.80;2.80;;;23.30;33.80;;;;;;221015;1268;23819;-63
2022/04/18 12:30:06;;;;;;;5.30;2.90;;;23.40;33.90;;;;;;220906;1267;22611;-65
2022/04/18 12:35:10;;;;;;;4.80;2.70;;;23.40;34.20;;;;;;220650;1268;24239;-64
2022/04/18 12:40:16;;;;;;;4.80;2.60;;;23.40;34.20;;;;;;220285;1268;22692;-64
2022/04/18 12:45:20;;;;;;;4.60;2.60;;;23.40;33.80;;;;;;220626;1267;22766;-66
2022/04/18 12:50:26;;;;;;;4.30;2.50;;;23.40;33.80;;;;;;220476;1267;24829;-64
2022/04/18 12:55:30;;;;;;;4.10;2.70;;;23.40;33.80;;;;;;220615;1268;22571;-65
2022/04/18 13:00:36;;;;;;;4.60;2.50;;;23.40;33.70;;;;;;220695;1267;22702;-64
2022/04/18 13:05:52;;;;;;;4.30;2.70;;;23.30;34.00;;;;;;220662;1268;26471;-67
2022/04/18 13:10:58;;;;;;;3.70;2.50;;;23.40;34.30;;;;;;220617;1268;24336;-65
2022/04/18 13:16:22;;;;;;;4.50;2.60;;;23.30;33.60;;;;;;220598;1268;23908;-65
2022/04/18 13:21:28;;;;;;;3.80;2.50;;;23.40;34.00;;;;;;220706;1267;22619;-64
2022/04/18 13:26:35;;;;;;;4.40;2.60;;;23.30;33.50;;;;;;220913;1268;24211;-65
2022/04/18 13:31:39;;;;;;;4.90;2.90;;;23.40;33.50;;;;;;220472;1266;25236;-66
2022/04/18 13:36:46;;;;;;;4.20;2.60;;;23.30;33.50;;;;;;220780;1267;22808;-65
2022/04/18 13:41:50;;;;;;;3.60;2.30;;;23.30;33.50;;;;;;220472;1267;25318;-64
2022/04/18 13:46:57;;;;;;;3.70;2.50;;;23.30;33.50;;;;;;220695;1268;24414;-64
2022/04/18 13:52:01;;;;;;;4.30;2.50;;;23.30;33.40;;;;;;221055;1267;25306;-64
2022/04/18 13:57:06;;;;;;;3.80;2.60;;;23.30;33.50;;;;;;220697;1267;23951;-66
2022/04/18 14:02:10;;;;;;;4.40;2.60;;;23.30;33.80;;;;;;221034;1267;22605;-65
2022/04/18 14:07:15;;;;;;;3.40;2.20;;;23.30;33.50;;;;;;220739;1267;25305;-66
2022/04/18 14:12:18;;;;;;;2.80;1.80;;;23.20;33.80;;;;;;220927;1267;22560;-63
2022/04/18 14:22:53;;;;;;;3.90;2.70;;;23.20;33.40;;;;;;220835;1267;22549;-64
2022/04/18 14:27:56;;;;;;;3.70;2.30;;;23.20;33.50;;;;;;220577;1267;22811;-63
2022/04/18 14:33:00;;;;;;;4.20;2.30;;;23.20;33.50;;;;;;220547;1267;25190;-65
2022/04/18 14:38:04;;;;;;;3.90;2.30;;;23.20;33.40;;;;;;220789;1268;24127;-66
2022/04/18 14:43:08;;;;;;;3.90;2.20;;;23.20;33.40;;;;;;220591;1268;25467;-65
2022/04/18 14:48:13;;;;;;;3.90;2.30;;;23.10;33.70;;;;;;220813;1268;25510;-65
2022/04/18 14:53:18;;;;;;;3.80;2.10;;;23.10;33.70;;;;;;220601;1267;23190;-63
2022/04/18 14:58:22;;;;;;;4.10;2.20;;;23.10;33.40;;;;;;220925;1267;25386;-65
2022/04/18 15:03:28;;;;;;;3.60;2.20;;;23.10;33.70;;;;;;221152;1268;23047;-64
2022/04/18 15:08:31;;;;;;;3.50;2.10;;;23.00;33.30;;;;;;220453;1267;22698;-64
2022/04/18 15:13:38;;;;;;;3.40;2.30;;;23.00;33.30;;;;;;220420;1267;24082;-64
2022/04/18 15:18:42;;;;;;;3.20;2.30;;;23.00;33.70;;;;;;220414;1267;24259;-63
2022/04/18 15:23:45;;;;;;;4.20;2.20;;;23.00;33.30;;;;;;220735;1267;22624;-65
2022/04/18 15:28:49;;;;;;;4.00;2.40;;;23.00;33.30;;;;;;220467;1267;22535;-64
2022/04/18 15:33:52;;;;;;;3.40;2.20;;;23.00;33.40;;;;;;220348;1267;22682;-65
2022/04/18 15:38:56;;;;;;;3.10;2.00;;;23.00;33.40;;;;;;220804;1267;24329;-63
2022/04/18 15:44:03;;;;;;;3.20;2.30;;;23.00;33.70;;;;;;220714;1267;23937;-63
2022/04/18 15:49:06;;;;;;;4.10;2.30;;;22.90;33.60;;;;;;220891;1267;24422;-63
2022/04/18 15:54:10;;;;;;;3.80;2.30;;;22.90;33.20;;;;;;220539;1267;24373;-64
2022/04/18 15:59:14;;;;;;;3.40;2.00;;;22.90;33.20;;;;;;220531;1267;24413;-65
2022/04/18 16:04:18;;;;;;;2.80;1.90;;;22.90;33.30;;;;;;220555;1267;25289;-62
2022/04/18 16:09:21;;;;;;;4.80;2.20;;;22.80;33.20;;;;;;220882;1267;24215;-64
2022/04/18 16:14:28;;;;;;;2.90;1.80;;;22.80;33.60;;;;;;220823;1267;22560;-64
2022/04/18 16:19:32;;;;;;;3.20;2.00;;;22.80;33.20;;;;;;221015;1267;25418;-63
2022/04/18 16:24:50;;;;;;;3.60;2.10;;;22.80;33.20;;;;;;220530;1267;22551;-62
2022/04/18 16:35:30;;;;;;;4.40;2.00;;;22.80;33.30;;;;;;220993;1268;24304;-63
2022/04/18 16:40:34;;;;;;;3.40;2.30;;;22.70;33.20;;;;;;220853;1267;22828;-63
2022/04/18 16:50:41;;;;;;;4.10;2.10;;;22.70;33.20;;;;;;220575;1267;22573;-63
2022/04/18 16:55:51;;;;;;;3.30;2.00;;;22.60;33.10;;;;;;221079;1267;22551;-65
2022/04/18 17:00:55;;;;;;;3.20;1.90;;;22.60;33.20;;;;;;220691;1267;22557;-63
2022/04/18 17:06:01;;;;;;;2.90;2.00;;;22.80;33.40;;;;;;220606;1267;22682;-64
2022/04/18 17:11:08;;;;;;;3.40;2.00;;;23.00;33.10;;;;;;220445;1267;25418;-64
2022/04/18 17:16:12;;;;;;;3.40;2.00;;;23.20;32.80;;;;;;220605;1267;22547;-63
2022/04/18 17:21:21;;;;;;;3.60;1.90;;;23.30;32.70;;;;;;220634;1267;22698;-63
2022/04/18 17:26:26;;;;;;;2.90;1.80;;;23.50;32.70;;;;;;220490;1267;24211;-65
2022/04/18 17:31:37;;;;;;;3.50;2.00;;;23.50;32.60;;;;;;221002;1267;25533;-62
2022/04/18 17:36:47;;;;;;;3.30;2.00;;;23.60;32.50;;;;;;220596;1267;22696;-65
2022/04/18 17:42:11;;;;;;;3.40;1.90;;;23.60;32.40;;;;;;220649;1267;25239;-63
2022/04/18 17:47:15;;;;;;;3.40;2.10;;;23.60;32.40;;;;;;220453;1267;22764;-66
2022/04/18 17:52:19;;;;;;;3.40;2.10;;;23.60;32.40;;;;;;220990;1267;25355;-62
2022/04/18 17:57:27;;;;;;;2.80;1.90;;;23.60;32.30;;;;;;220720;1267;24289;-63
2022/04/18 18:02:35;;;;;;;3.00;1.90;;;23.60;32.60;;;;;;220749;1267;22712;-63
2022/04/18 18:07:39;;;;;;;3.40;1.90;;;23.50;32.60;;;;;;220983;1267;24409;-63
2022/04/18 18:12:43;;;;;;;3.10;1.90;;;23.50;32.60;;;;;;220656;1267;22738;-62
2022/04/18 18:17:49;;;;;;;6.30;2.90;;;23.50;32.80;;;;;;220954;1267;22552;-72
2022/04/18 18:22:54;;;;;;;7.50;2.60;;;23.40;32.20;;;;;;220731;1267;22528;-66
2022/04/18 18:27:58;;;;;;;9.90;2.80;;;23.30;32.20;;;;;;220344;1267;24309;-66
2022/04/18 18:33:07;;;;;;;11.80;3.10;;;23.40;32.70;;;;;;220405;1268;25237;-65
2022/04/18 18:38:11;;;;;;;24.30;3.50;;;23.50;33.40;;;;;;220682;1267;25632;-66
2022/04/18 18:43:16;;;;;;;29.00;5.70;;;23.60;34.00;;;;;;220613;1267;23960;-68
2022/04/18 18:48:21;;;;;;;32.40;7.40;;;23.60;34.60;;;;;;220973;1267;22689;-61
2022/04/18 18:53:27;;;;;;;28.70;6.00;;;23.60;36.30;;;;;;220543;1267;22596;-65
2022/04/18 18:58:31;;;;;;;22.30;5.30;;;23.50;37.90;;;;;;220900;1267;25235;-62
2022/04/18 19:03:37;;;;;;;25.30;6.20;;;23.50;38.10;;;;;;220518;1267;23024;-60
2022/04/18 19:08:41;;;;;;;30.10;5.60;;;23.40;38.90;;;;;;220837;1267;22546;-59
2022/04/18 19:13:50;;;;;;;29.10;6.00;;;23.40;40.40;;;;;;220502;1266;22749;-59
2022/04/18 19:30:03;;;;;;;24.90;5.30;;;23.30;41.20;;;;;;220854;1267;25455;-57
2022/04/18 19:35:22;;;;;;;20.20;5.50;;;23.30;41.30;;;;;;220681;1267;25541;-60
2022/04/18 19:40:26;;;;;;;17.30;5.00;;;23.30;41.80;;;;;;220934;1267;22719;-59
2022/04/18 19:45:32;;;;;;;14.30;4.50;;;23.30;41.50;;;;;;220532;1267;22536;-60
2022/04/18 19:50:40;;;;;;;24.90;4.40;;;23.20;41.50;;;;;;220697;1267;25417;-59
2022/04/18 19:55:43;;;;;;;25.70;4.70;;;23.20;41.60;;;;;;220347;1268;22570;-59
2022/04/18 20:00:51;;;;;;;20.50;5.60;;;23.20;41.50;;;;;;220670;1267;22557;-60
2022/04/18 20:05:57;;;;;;;13.70;4.60;;;23.20;41.90;;;;;;220449;1270;22605;-67
2022/04/18 20:11:01;;;;;;;27.50;5.30;;;23.10;42.10;;;;;;220778;1267;26111;-61
2022/04/18 20:16:09;;;;;;;18.30;4.50;;;23.20;44.70;;;;;;221278;1267;25652;-67
2022/04/18 20:21:15;;;;;;;23.40;4.80;;;23.10;45.80;;;;;;220916;1267;24250;-65
2022/04/18 20:26:19;;;;;;;19.10;4.60;;;23.00;44.50;;;;;;221812;1265;25242;-68
2022/04/18 20:31:26;;;;;;;14.50;4.10;;;22.90;44.30;;;;;;219956;1268;25316;-65
2022/04/18 20:36:30;;;;;;;21.70;5.10;;;22.90;44.30;;;;;;220677;1267;25374;-64
2022/04/18 20:41:34;;;;;;;22.60;4.60;;;22.90;46.40;;;;;;220705;1267;25489;-62
2022/04/18 20:46:38;;;;;;;17.80;4.50;;;22.90;46.40;;;;;;220232;1267;22770;-63
2022/04/18 20:51:45;;;;;;;15.70;4.40;;;22.90;46.20;;;;;;220481;1267;22535;-63
2022/04/18 21:02:17;;;;;;;19.70;4.40;;;22.90;46.30;;;;;;220410;1267;24301;-63
2022/04/18 21:07:21;;;;;;;12.30;4.00;;;22.90;45.90;;;;;;220531;1267;23185;-64
2022/04/18 21:12:26;;;;;;;14.50;4.00;;;22.90;46.00;;;;;;220386;1267;22529;-64
2022/04/18 21:17:41;;;;;;;14.60;4.40;;;22.80;45.70;;;;;;220646;1267;26638;-63
2022/04/18 21:22:44;;;;;;;15.20;4.40;;;22.80;46.10;;;;;;220391;1267;22716;-64
2022/04/18 21:27:50;;;;;;;15.70;4.40;;;22.80;45.70;;;;;;220462;1267;22551;-62
2022/04/18 21:32:58;;;;;;;10.20;3.90;;;22.80;45.60;;;;;;220631;1267;24216;-63
2022/04/18 21:38:04;;;;;;;10.00;3.90;;;22.70;45.80;;;;;;220269;1267;22533;-62
2022/04/18 21:43:08;;;;;;;11.30;3.90;;;22.70;45.50;;;;;;220477;1267;27023;-61
2022/04/18 21:48:13;;;;;;;15.30;4.00;;;22.70;44.90;;;;;;220490;1267;25514;-64
2022/04/18 21:53:19;;;;;;;11.80;3.60;;;22.70;45.10;;;;;;220278;1267;24412;-63
2022/04/18 21:58:23;;;;;;;10.50;4.40;;;22.70;45.20;;;;;;220728;1267;25289;-63
2022/04/18 22:03:26;;;;;;;8.10;3.60;;;22.70;45.20;;;;;;220462;1267;25290;-64
2022/04/18 22:08:30;;;;;;;11.50;3.90;;;22.70;45.20;;;;;;220571;1267;26582;-65
2022/04/18 22:13:34;;;;;;;7.80;3.50;;;22.60;45.10;;;;;;220567;1268;25531;-63
2022/04/18 22:18:38;;;;;;;9.70;3.90;;;22.60;45.60;;;;;;220480;1267;24270;-64
2022/04/18 22:24:53;;;;;;;14.50;4.00;;;22.50;45.30;;;;;;220565;1267;22637;-62
2022/04/18 22:29:06;;;;;;;7.20;3.80;;;22.50;45.50;;;;;;220510;1267;22566;-64
2022/04/18 22:34:11;;;;;;;8.20;3.80;;;22.50;45.40;;;;;;220926;1267;22635;-63
2022/04/18 22:39:14;;;;;;;8.90;3.80;;;22.50;45.10;;;;;;220635;1268;22532;-63
2022/04/18 22:44:18;;;;;;;11.40;3.90;;;22.50;45.00;;;;;;220680;1268;24195;-62
2022/04/18 22:49:22;;;;;;;10.30;4.30;;;22.50;44.90;;;;;;220662;1267;25253;-63
2022/04/18 22:54:27;;;;;;;11.40;4.20;;;22.50;45.00;;;;;;220405;1270;24233;-63
2022/04/18 22:59:33;;;;;;;13.10;4.00;;;22.50;45.00;;;;;;220263;1270;25311;-62
2022/04/18 23:04:40;;;;;;;13.30;4.70;;;22.40;45.00;;;;;;220258;1269;22711;-63
2022/04/18 23:09:44;;;;;;;11.40;4.20;;;22.40;44.60;;;;;;220765;1267;25238;-62
2022/04/18 23:14:48;;;;;;;11.60;4.50;;;22.40;44.60;;;;;;220385;1268;22538;-63
2022/04/18 23:19:52;;;;;;;15.80;4.40;;;22.40;44.60;;;;;;220973;1268;24215;-63
2022/04/18 23:24:58;;;;;;;13.10;5.10;;;22.70;44.90;;;;;;220980;1267;22540;-64
2022/04/18 23:30:04;;;;;;;14.90;5.40;;;23.10;43.80;;;;;;220729;1267;22740;-63
2022/04/18 23:35:09;;;;;;;12.90;5.40;;;23.30;43.10;;;;;;220296;1270;22616;-62
2022/04/18 23:45:35;;;;;;;13.60;4.90;;;23.60;42.60;;;;;;220498;1268;25277;-63
2022/04/18 23:50:49;;;;;;;13.40;5.90;;;23.70;42.60;;;;;;220404;1268;23920;-64
2022/04/18 23:55:59;;;;;;;12.50;4.50;;;23.80;42.80;;;;;;221010;1268;24276;-63
